Time;durP1;ratioP1;P1;durP2;ratioP2;P2;SDS_P1;SDS_P2;PMS_P1;PMS_P2;Temp;Humidity;BMP_temperature;BMP_pressure;BME280_temperature;BME280_humidity;BME280_pressure;Samples;Min_cycle;Max_cycle;Signal;HPM_P1;HPM_P2
2021/03/30 00:00:14;;;;;;;2.40;1.70;;;12.50;52.70;;;;;;5074767;28;20454;-72
2021/03/30 00:02:40;;;;;;;1.83;1.65;;;12.50;52.70;;;;;;5074050;28;20032;-72
2021/03/30 00:05:06;;;;;;;2.45;1.77;;;12.50;52.80;;;;;;5074114;28;20377;-72
2021/03/30 00:07:32;;;;;;;3.15;2.08;;;12.50;52.80;;;;;;5073991;28;20036;-72
2021/03/30 00:09:57;;;;;;;2.00;1.83;;;12.40;52.80;;;;;;5074476;28;20021;-72
2021/03/30 00:12:23;;;;;;;2.20;1.63;;;12.40;52.90;;;;;;5074005;28;20028;-72
2021/03/30 00:14:48;;;;;;;2.25;1.80;;;12.40;53.00;;;;;;5074241;28;20534;-72
2021/03/30 00:17:14;;;;;;;3.05;2.20;;;12.40;53.10;;;;;;5073952;28;20033;-72
2021/03/30 00:19:39;;;;;;;2.08;1.67;;;12.40;53.20;;;;;;5072452;28;20128;-72
2021/03/30 00:22:05;;;;;;;3.10;2.13;;;12.40;53.20;;;;;;5073558;28;20039;-72
2021/03/30 00:24:31;;;;;;;1.75;1.60;;;12.40;53.20;;;;;;5073580;28;20056;-72
2021/03/30 00:26:56;;;;;;;3.05;2.03;;;12.40;53.30;;;;;;5073647;28;20020;-72
2021/03/30 00:29:22;;;;;;;4.00;2.50;;;12.50;53.30;;;;;;5073697;28;20020;-72
2021/03/30 00:31:47;;;;;;;2.28;1.50;;;12.40;53.30;;;;;;5073798;28;20026;-72
2021/03/30 00:34:13;;;;;;;3.30;2.20;;;12.40;53.40;;;;;;5073018;28;20108;-72
2021/03/30 00:36:38;;;;;;;3.08;2.30;;;12.30;53.60;;;;;;5073318;28;20078;-72
2021/03/30 00:39:04;;;;;;;2.95;2.15;;;12.30;53.80;;;;;;5073139;28;20013;-72
2021/03/30 00:41:30;;;;;;;3.15;2.38;;;12.20;53.80;;;;;;5073069;28;20029;-71
2021/03/30 00:43:55;;;;;;;3.50;1.98;;;12.20;53.90;;;;;;5073531;28;20031;-71
2021/03/30 00:46:23;;;;;;;2.92;2.22;;;12.10;53.90;;;;;;5073294;28;20043;-71
2021/03/30 00:48:50;;;;;;;3.22;2.30;;;12.10;54.00;;;;;;5073452;28;20028;-71
2021/03/30 00:51:18;;;;;;;4.05;1.92;;;12.00;54.10;;;;;;5073650;28;20048;-71
2021/03/30 00:53:45;;;;;;;3.15;1.85;;;12.00;54.20;;;;;;5073345;28;20083;-71
2021/03/30 00:56:10;;;;;;;2.53;1.63;;;11.90;54.20;;;;;;5073307;28;20021;-71
2021/03/30 00:58:36;;;;;;;2.78;1.90;;;11.90;54.30;;;;;;5073254;28;20092;-71
2021/03/30 01:01:02;;;;;;;4.18;1.83;;;11.80;54.40;;;;;;5073665;28;20150;-71
2021/03/30 01:03:27;;;;;;;2.90;1.70;;;11.80;54.60;;;;;;5073145;28;20487;-72
2021/03/30 01:05:53;;;;;;;3.33;1.60;;;11.70;54.60;;;;;;5073119;28;20206;-71
2021/03/30 01:08:45;;;;;;;3.75;3.17;;;11.60;54.70;;;;;;5073121;28;20025;-71
2021/03/30 01:11:27;;;;;;;3.15;2.83;;;11.60;54.80;;;;;;5073080;28;20051;-71
2021/03/30 01:14:23;;;;;;;2.20;1.85;;;11.50;55.00;;;;;;5073651;28;20035;-71
2021/03/30 01:17:18;;;;;;;2.85;2.00;;;11.40;55.00;;;;;;5072890;28;20044;-71
2021/03/30 01:20:04;;;;;;;3.92;2.60;;;11.30;55.10;;;;;;5073381;28;20393;-71
2021/03/30 01:22:55;;;;;;;1.98;1.58;;;11.20;55.20;;;;;;5071727;28;20171;-72
2021/03/30 01:25:22;;;;;;;1.70;1.50;;;11.20;55.20;;;;;;5071752;28;20027;-71
2021/03/30 01:27:50;;;;;;;3.05;2.10;;;11.10;55.20;;;;;;5072920;28;20568;-71
2021/03/30 01:30:19;;;;;;;2.03;1.80;;;11.10;55.30;;;;;;5072903;28;20056;-71
2021/03/30 01:32:56;;;;;;;2.88;1.83;;;11.00;55.40;;;;;;5072802;28;20025;-71
2021/03/30 01:35:25;;;;;;;2.10;1.80;;;11.00;55.50;;;;;;5072951;28;20541;-71
2021/03/30 01:37:52;;;;;;;2.05;1.80;;;10.90;55.70;;;;;;5073405;28;20032;-71
2021/03/30 01:40:22;;;;;;;2.95;1.77;;;10.70;55.70;;;;;;5073369;28;20137;-71
2021/03/30 01:42:48;;;;;;;;;;;10.70;55.90;;;;;;5073208;28;20040;-71
2021/03/30 01:45:19;;;;;;;1.80;1.63;;;10.60;55.80;;;;;;5075897;28;19904;-72
2021/03/30 01:47:45;;;;;;;3.33;1.73;;;10.60;55.90;;;;;;5077128;28;20107;-71
2021/03/30 01:50:12;;;;;;;2.92;1.80;;;10.50;56.00;;;;;;5076741;28;20028;-71
2021/03/30 01:52:39;;;;;;;2.45;2.03;;;10.50;56.10;;;;;;5076658;28;20556;-71
2021/03/30 01:55:08;;;;;;;2.42;1.80;;;10.40;56.10;;;;;;5077190;28;20036;-72
2021/03/30 01:57:36;;;;;;;2.22;1.90;;;10.40;56.20;;;;;;5076653;28;20021;-72
2021/03/30 02:00:07;;;;;;;3.65;1.88;;;10.40;56.30;;;;;;5076504;28;20036;-72
2021/03/30 02:02:33;;;;;;;3.00;2.15;;;10.30;56.40;;;;;;5076459;28;20036;-72
2021/03/30 02:05:00;;;;;;;3.17;2.67;;;10.20;56.50;;;;;;5075156;28;20074;-72
2021/03/30 02:07:28;;;;;;;3.10;1.90;;;10.10;56.60;;;;;;5076433;28;20031;-71
2021/03/30 02:09:58;;;;;;;2.58;1.77;;;10.00;56.70;;;;;;5076446;28;20029;-72
2021/03/30 02:12:30;;;;;;;2.40;2.20;;;9.90;56.90;;;;;;5075094;28;20326;-72
2021/03/30 02:14:56;;;;;;;2.30;2.10;;;9.90;57.00;;;;;;5076751;28;20492;-72
2021/03/30 02:17:29;;;;;;;2.95;1.98;;;9.80;57.00;;;;;;5076772;28;20477;-71
2021/03/30 02:20:18;;;;;;;1.70;1.58;;;9.80;56.90;;;;;;5076512;28;20039;-71
2021/03/30 02:22:56;;;;;;;2.40;1.83;;;9.80;56.90;;;;;;5076621;28;20462;-71
2021/03/30 02:25:22;;;;;;;2.63;1.90;;;9.70;57.10;;;;;;5076564;28;20107;-71
2021/03/30 02:27:50;;;;;;;3.63;2.25;;;9.60;57.30;;;;;;5076023;28;20058;-72
2021/03/30 02:30:18;;;;;;;2.67;2.10;;;9.40;57.40;;;;;;5075909;28;20021;-72
2021/03/30 02:32:47;;;;;;;4.10;2.45;;;9.30;57.60;;;;;;5076540;28;20021;-72
2021/03/30 02:35:14;;;;;;;2.60;2.08;;;9.20;57.80;;;;;;5075924;28;20072;-71
2021/03/30 02:37:41;;;;;;;3.60;2.28;;;9.20;58.00;;;;;;5076430;28;20029;-72
2021/03/30 02:40:09;;;;;;;1.75;1.65;;;9.10;58.00;;;;;;5075845;28;20017;-71
2021/03/30 02:42:36;;;;;;;2.28;1.73;;;9.10;58.10;;;;;;5075658;28;20036;-72
2021/03/30 02:45:04;;;;;;;1.77;1.42;;;9.20;58.00;;;;;;5075651;28;20071;-72
2021/03/30 02:47:31;;;;;;;3.40;2.60;;;9.20;58.00;;;;;;5075571;28;20039;-72
2021/03/30 02:49:57;;;;;;;2.03;1.77;;;9.30;58.00;;;;;;5075606;28;20097;-72
2021/03/30 02:52:24;;;;;;;2.95;1.92;;;9.30;57.90;;;;;;5075612;28;20032;-72
2021/03/30 02:54:50;;;;;;;2.38;1.95;;;9.30;57.80;;;;;;5075597;28;20027;-72
2021/03/30 02:57:16;;;;;;;2.97;1.90;;;9.30;57.80;;;;;;5075370;28;20025;-72
2021/03/30 02:59:44;;;;;;;1.83;1.48;;;9.40;57.60;;;;;;5075994;28;20021;-72
2021/03/30 03:02:13;;;;;;;3.53;2.53;;;9.50;57.70;;;;;;5075399;28;20063;-72
2021/03/30 03:04:38;;;;;;;2.47;1.83;;;9.40;57.80;;;;;;5075418;28;20025;-71
2021/03/30 03:07:05;;;;;;;4.30;1.75;;;9.40;57.90;;;;;;5075401;28;20438;-72
2021/03/30 03:09:33;;;;;;;2.97;2.17;;;9.30;58.20;;;;;;5075321;28;20028;-72
2021/03/30 03:11:59;;;;;;;2.95;2.53;;;9.30;58.40;;;;;;5075300;28;20052;-72
2021/03/30 03:14:25;;;;;;;2.70;1.77;;;9.20;58.40;;;;;;5075701;28;20056;-72
2021/03/30 03:16:51;;;;;;;3.60;1.90;;;9.10;58.50;;;;;;5075274;28;20153;-71
2021/03/30 03:19:17;;;;;;;2.50;2.30;;;9.00;58.70;;;;;;5075222;28;20012;-72
2021/03/30 03:21:44;;;;;;;3.63;2.25;;;8.90;59.50;;;;;;5075035;28;20467;-72
2021/03/30 03:24:11;;;;;;;2.95;2.15;;;8.80;59.10;;;;;;5075069;28;20065;-71
2021/03/30 03:26:38;;;;;;;2.53;2.03;;;8.70;59.20;;;;;;5075516;28;20052;-72
2021/03/30 03:29:11;;;;;;;2.75;1.80;;;8.60;59.90;;;;;;5075003;28;20016;-72
2021/03/30 03:31:36;;;;;;;3.13;2.30;;;8.70;59.30;;;;;;5075805;28;20063;-72
2021/03/30 03:34:02;;;;;;;2.42;1.67;;;8.80;59.20;;;;;;5074863;28;20542;-71
2021/03/30 03:36:36;;;;;;;2.88;2.08;;;8.80;59.10;;;;;;5074817;28;20538;-72
2021/03/30 03:39:03;;;;;;;3.35;2.10;;;8.90;58.90;;;;;;5073499;28;20384;-72
2021/03/30 03:41:29;;;;;;;3.65;2.33;;;9.00;58.80;;;;;;5073273;28;20029;-72
2021/03/30 03:43:55;;;;;;;3.78;2.92;;;8.90;58.90;;;;;;5074923;28;20028;-72
2021/03/30 03:46:20;;;;;;;2.17;1.75;;;8.90;58.90;;;;;;5074842;28;20036;-72
2021/03/30 03:48:46;;;;;;;2.80;2.10;;;8.80;59.10;;;;;;5074819;28;20100;-72
2021/03/30 03:51:12;;;;;;;3.00;2.50;;;8.80;59.30;;;;;;5073268;28;20145;-72
2021/03/30 03:53:39;;;;;;;3.75;2.17;;;8.70;59.40;;;;;;5074433;28;20086;-72
2021/03/30 03:56:07;;;;;;;1.88;1.48;;;8.60;59.60;;;;;;5073135;28;20425;-72
2021/03/30 03:58:46;;;;;;;3.95;2.45;;;8.60;59.80;;;;;;5074314;28;20059;-71
2021/03/30 04:01:20;;;;;;;2.58;2.03;;;8.50;59.90;;;;;;5074313;28;20039;-72
2021/03/30 04:03:52;;;;;;;2.35;2.15;;;8.50;59.90;;;;;;5073060;28;20036;-72
2021/03/30 04:06:22;;;;;;;3.13;2.25;;;8.40;60.10;;;;;;5074213;28;20025;-71
2021/03/30 04:08:52;;;;;;;3.92;2.33;;;8.30;60.10;;;;;;5073125;28;20381;-72
2021/03/30 04:11:19;;;;;;;3.83;2.60;;;8.20;60.40;;;;;;5074146;28;20021;-72
2021/03/30 04:13:46;;;;;;;1.67;1.55;;;8.10;61.20;;;;;;5074056;28;20028;-72
2021/03/30 04:16:13;;;;;;;2.70;1.85;;;8.00;60.70;;;;;;5074032;28;20017;-72
2021/03/30 04:18:40;;;;;;;2.97;1.70;;;8.00;60.80;;;;;;5073986;28;20017;-71
2021/03/30 04:21:21;;;;;;;2.95;2.05;;;8.00;60.70;;;;;;5073946;28;20404;-72
2021/03/30 04:23:47;;;;;;;2.42;1.80;;;8.00;60.70;;;;;;5073905;28;20017;-72
2021/03/30 04:26:13;;;;;;;2.08;1.85;;;8.00;61.30;;;;;;5074299;28;20021;-72
2021/03/30 04:28:39;;;;;;;2.72;1.80;;;8.00;60.60;;;;;;5072564;28;20146;-72
2021/03/30 04:31:05;;;;;;;3.05;2.00;;;8.00;60.70;;;;;;5074217;28;20027;-73
2021/03/30 04:33:31;;;;;;;2.83;2.20;;;8.00;60.60;;;;;;5073693;28;20032;-71
2021/03/30 04:35:57;;;;;;;2.50;1.70;;;8.00;60.60;;;;;;5074211;28;20024;-71
2021/03/30 04:38:23;;;;;;;2.65;1.60;;;8.10;60.60;;;;;;5073654;28;20020;-72
2021/03/30 04:40:53;;;;;;;1.92;1.80;;;8.10;60.50;;;;;;5073980;28;20479;-71
2021/03/30 04:43:23;;;;;;;2.67;2.25;;;8.10;60.50;;;;;;5073484;28;20103;-72
2021/03/30 04:45:49;;;;;;;2.88;1.75;;;8.20;60.50;;;;;;5073267;28;20016;-72
2021/03/30 04:48:15;;;;;;;2.55;1.75;;;8.20;60.50;;;;;;5073903;28;20369;-72
2021/03/30 04:50:42;;;;;;;3.38;2.15;;;8.20;60.50;;;;;;5073405;28;20013;-72
2021/03/30 04:53:08;;;;;;;3.08;2.15;;;8.10;60.60;;;;;;5073405;28;20020;-72
2021/03/30 04:55:33;;;;;;;2.80;1.90;;;8.10;60.70;;;;;;5073384;28;20362;-72
2021/03/30 04:57:59;;;;;;;2.13;1.77;;;8.10;60.80;;;;;;5073346;28;20604;-72
2021/03/30 05:00:24;;;;;;;3.38;2.17;;;8.10;60.90;;;;;;5071991;28;20029;-72
2021/03/30 05:02:50;;;;;;;2.97;1.92;;;8.10;60.90;;;;;;5073238;28;20105;-72
2021/03/30 05:05:16;;;;;;;2.50;1.80;;;8.10;60.90;;;;;;5073802;28;20071;-72
2021/03/30 05:07:41;;;;;;;3.10;2.13;;;8.20;61.00;;;;;;5073250;28;20028;-72
2021/03/30 05:10:08;;;;;;;2.15;1.52;;;8.20;61.10;;;;;;5073746;28;20069;-72
2021/03/30 05:12:33;;;;;;;3.00;1.95;;;8.10;61.10;;;;;;5073027;28;20115;-72
2021/03/30 05:14:59;;;;;;;2.42;1.92;;;8.10;61.30;;;;;;5073096;28;20059;-72
2021/03/30 05:17:24;;;;;;;3.13;2.22;;;8.00;61.50;;;;;;5073051;28;20025;-72
2021/03/30 05:19:50;;;;;;;4.50;2.30;;;7.90;61.60;;;;;;5072474;28;20048;-72
2021/03/30 05:22:15;;;;;;;2.85;1.77;;;7.90;61.80;;;;;;5073301;28;20445;-72
2021/03/30 05:24:41;;;;;;;3.80;1.98;;;7.90;61.90;;;;;;5071663;28;20024;-72
2021/03/30 05:27:07;;;;;;;4.05;2.58;;;7.90;62.00;;;;;;5071661;28;20456;-72
2021/03/30 05:29:42;;;;;;;3.33;2.33;;;7.90;62.10;;;;;;5073509;28;20021;-72
2021/03/30 05:32:17;;;;;;;3.72;2.20;;;7.80;62.10;;;;;;5071573;28;20490;-71
2021/03/30 05:34:47;;;;;;;1.88;1.42;;;7.80;62.10;;;;;;5072894;28;20032;-72
2021/03/30 05:37:13;;;;;;;2.83;1.95;;;7.80;62.10;;;;;;5071481;28;20044;-72
2021/03/30 05:39:40;;;;;;;4.13;2.22;;;7.80;62.10;;;;;;5072875;28;20028;-71
2021/03/30 05:42:06;;;;;;;5.18;2.22;;;7.90;62.10;;;;;;5072673;28;20545;-71
2021/03/30 05:44:32;;;;;;;2.92;1.95;;;7.90;62.00;;;;;;5072828;28;20055;-71
2021/03/30 05:47:16;;;;;;;3.85;2.30;;;8.00;62.00;;;;;;5072739;28;20024;-71
2021/03/30 05:49:43;;;;;;;2.03;1.65;;;7.90;62.00;;;;;;5071534;28;20547;-71
2021/03/30 05:52:44;;;;;;;2.63;1.70;;;8.00;62.00;;;;;;5072673;28;20031;-71
2021/03/30 05:55:12;;;;;;;3.38;2.28;;;8.10;61.90;;;;;;5073309;28;20017;-71
2021/03/30 05:57:38;;;;;;;2.42;1.75;;;8.10;61.90;;;;;;5072606;28;20100;-71
2021/03/30 06:00:07;;;;;;;2.88;1.77;;;8.10;61.90;;;;;;5071333;28;20496;-72
2021/03/30 06:02:44;;;;;;;2.10;1.83;;;8.20;61.90;;;;;;5073107;28;20032;-71
2021/03/30 06:05:15;;;;;;;2.75;2.40;;;8.20;61.90;;;;;;5072635;28;20034;-71
2021/03/30 06:07:40;;;;;;;2.95;2.25;;;8.30;61.90;;;;;;5072505;28;20078;-71
2021/03/30 06:10:18;;;;;;;3.38;2.00;;;8.40;61.80;;;;;;5072522;28;20028;-71
2021/03/30 06:12:44;;;;;;;3.67;2.17;;;8.50;61.60;;;;;;5071259;28;20077;-71
2021/03/30 06:15:12;;;;;;;4.88;3.13;;;8.70;61.30;;;;;;5072424;28;20388;-71
2021/03/30 06:17:50;;;;;;;5.97;2.50;;;8.90;61.10;;;;;;5072444;28;20442;-71
2021/03/30 06:20:34;;;;;;;4.38;2.38;;;9.10;60.90;;;;;;5072015;28;20045;-71
2021/03/30 06:23:04;;;;;;;3.45;2.10;;;9.20;60.70;;;;;;5070948;28;20396;-71
2021/03/30 06:25:39;;;;;;;3.15;2.08;;;9.30;60.70;;;;;;5073092;28;20052;-71
2021/03/30 06:28:27;;;;;;;2.90;2.10;;;9.40;60.70;;;;;;5073221;28;20066;-71
2021/03/30 06:31:14;;;;;;;4.20;2.00;;;9.40;60.60;;;;;;5073209;28;20429;-71
2021/03/30 06:33:56;;;;;;;3.05;1.67;;;9.50;60.70;;;;;;5076573;28;20024;-71
2021/03/30 06:36:26;;;;;;;3.65;1.85;;;9.50;60.70;;;;;;5076296;28;20031;-71
2021/03/30 06:39:04;;;;;;;4.65;3.00;;;9.50;60.80;;;;;;5074557;28;20028;-71
2021/03/30 06:41:37;;;;;;;3.10;2.00;;;9.60;60.90;;;;;;5075725;28;20037;-71
2021/03/30 06:44:27;;;;;;;3.40;2.20;;;9.60;60.90;;;;;;5075821;28;20086;-71
2021/03/30 06:46:59;;;;;;;4.18;2.63;;;9.70;60.90;;;;;;5075613;28;20032;-71
2021/03/30 06:49:26;;;;;;;5.05;2.95;;;9.80;60.90;;;;;;5075703;28;20049;-71
2021/03/30 06:51:53;;;;;;;2.90;2.03;;;9.80;60.80;;;;;;5076105;28;20468;-71
2021/03/30 06:54:19;;;;;;;2.50;2.10;;;9.90;60.90;;;;;;5075525;28;20481;-71
2021/03/30 06:56:56;;;;;;;3.75;2.15;;;9.90;60.90;;;;;;5075581;28;20021;-71
2021/03/30 06:59:23;;;;;;;4.05;2.55;;;9.90;61.00;;;;;;5076115;28;20031;-71
2021/03/30 07:01:56;;;;;;;3.05;2.13;;;10.00;61.10;;;;;;5075410;28;20028;-71
2021/03/30 07:04:22;;;;;;;2.97;2.53;;;10.00;61.20;;;;;;5075784;28;20021;-71
2021/03/30 07:06:54;;;;;;;4.60;3.15;;;10.00;61.20;;;;;;5074054;28;20016;-71
2021/03/30 07:09:23;;;;;;;4.38;2.72;;;10.10;61.20;;;;;;5075254;28;20047;-71
2021/03/30 07:11:49;;;;;;;3.88;2.25;;;10.10;61.20;;;;;;5075296;28;20028;-71
2021/03/30 07:14:15;;;;;;;3.70;2.53;;;10.20;61.30;;;;;;5073934;28;20056;-72
2021/03/30 07:16:54;;;;;;;4.95;2.92;;;10.20;61.30;;;;;;5073757;28;20489;-71
2021/03/30 07:19:26;;;;;;;2.60;2.05;;;10.30;61.40;;;;;;5075085;28;20093;-70
2021/03/30 07:22:07;;;;;;;4.13;2.97;;;10.20;61.40;;;;;;5075857;28;20476;-71
2021/03/30 07:24:49;;;;;;;4.88;3.33;;;10.30;61.50;;;;;;5073587;28;20459;-71
2021/03/30 07:27:19;;;;;;;3.97;2.90;;;10.30;61.60;;;;;;5074911;28;20103;-72
2021/03/30 07:29:47;;;;;;;2.38;2.00;;;10.30;61.60;;;;;;5075443;28;20016;-71
2021/03/30 07:32:22;;;;;;;3.63;2.53;;;10.40;61.70;;;;;;5074806;28;20029;-72
2021/03/30 07:35:01;;;;;;;4.20;2.70;;;10.40;61.70;;;;;;5074796;28;20025;-72
2021/03/30 07:37:33;;;;;;;3.57;2.13;;;10.50;61.80;;;;;;5073530;28;20017;-72
2021/03/30 07:40:00;;;;;;;4.80;2.88;;;10.50;61.70;;;;;;5074772;28;20271;-72
2021/03/30 07:42:27;;;;;;;4.75;3.03;;;10.60;61.70;;;;;;5074411;28;20078;-72
2021/03/30 07:44:53;;;;;;;4.68;3.25;;;10.70;61.50;;;;;;5074597;28;20016;-72
2021/03/30 07:47:20;;;;;;;4.40;2.95;;;10.90;61.50;;;;;;5074575;28;20139;-72
2021/03/30 07:49:50;;;;;;;3.10;2.50;;;11.00;61.30;;;;;;5074404;28;20032;-72
2021/03/30 07:52:40;;;;;;;3.13;2.67;;;11.00;61.10;;;;;;5074505;28;20162;-72
2021/03/30 07:55:12;;;;;;;4.07;2.85;;;11.20;61.10;;;;;;5065367;28;20055;-72
2021/03/30 07:57:57;;;;;;;4.18;2.55;;;11.30;61.10;;;;;;5074387;28;20048;-72
2021/03/30 08:00:32;;;;;;;3.78;2.40;;;11.40;61.00;;;;;;5072975;28;20035;-72
2021/03/30 08:03:02;;;;;;;3.47;2.40;;;11.50;61.00;;;;;;5074131;28;20470;-72
2021/03/30 08:05:31;;;;;;;3.35;2.20;;;11.60;60.90;;;;;;5072912;28;20025;-72
2021/03/30 08:07:57;;;;;;;4.30;2.80;;;11.70;60.80;;;;;;5072893;28;20017;-72
2021/03/30 08:10:33;;;;;;;4.28;2.40;;;11.80;60.70;;;;;;5074073;28;20354;-72
2021/03/30 08:13:20;;;;;;;3.65;2.40;;;11.90;60.70;;;;;;5072803;28;20029;-72
2021/03/30 08:15:50;;;;;;;3.42;2.42;;;12.10;60.70;;;;;;5073966;28;20032;-71
2021/03/30 08:18:18;;;;;;;4.35;3.03;;;12.20;60.60;;;;;;5073876;28;20032;-72
2021/03/30 08:20:58;;;;;;;3.08;2.55;;;12.30;60.60;;;;;;5073791;28;20115;-72
2021/03/30 08:23:24;;;;;;;;;;;12.40;60.50;;;;;;5072896;28;20452;-72
2021/03/30 08:25:52;;;;;;;3.45;2.50;;;12.40;60.30;;;;;;5073754;28;19908;-72
2021/03/30 08:28:49;;;;;;;3.10;2.05;;;12.50;60.40;;;;;;5074276;28;20384;-72
2021/03/30 08:31:19;;;;;;;3.83;2.67;;;12.70;60.20;;;;;;5074142;28;20029;-72
2021/03/30 08:33:45;;;;;;;3.53;2.78;;;12.80;60.20;;;;;;5073849;28;20063;-72
2021/03/30 08:36:23;;;;;;;3.72;2.50;;;12.90;60.20;;;;;;5073630;28;20111;-72
2021/03/30 08:38:50;;;;;;;4.63;2.85;;;13.10;60.10;;;;;;5073518;28;20024;-71
2021/03/30 08:41:45;;;;;;;3.85;2.45;;;13.20;60.00;;;;;;5073464;28;20032;-72
2021/03/30 08:44:32;;;;;;;3.53;2.33;;;13.30;60.00;;;;;;5073523;28;20019;-72
2021/03/30 08:46:59;;;;;;;3.22;2.00;;;13.40;59.90;;;;;;5073416;28;20051;-72
2021/03/30 08:49:43;;;;;;;2.67;2.08;;;13.50;59.90;;;;;;5071544;28;20031;-72
2021/03/30 08:52:15;;;;;;;3.97;2.42;;;13.60;59.90;;;;;;5072040;28;20024;-73
2021/03/30 08:54:53;;;;;;;2.88;2.42;;;13.70;59.90;;;;;;5071517;28;20130;-73
2021/03/30 08:57:22;;;;;;;2.47;2.20;;;13.80;60.00;;;;;;5073614;28;20108;-72
2021/03/30 08:59:48;;;;;;;4.70;3.00;;;13.80;60.00;;;;;;5071937;28;20020;-72
2021/03/30 09:02:21;;;;;;;4.88;2.80;;;13.90;60.00;;;;;;5073395;28;20029;-72
2021/03/30 09:04:47;;;;;;;3.10;2.25;;;14.00;59.90;;;;;;5073299;28;20028;-72
2021/03/30 09:07:13;;;;;;;4.53;2.58;;;14.10;59.90;;;;;;5073220;28;20534;-72
2021/03/30 09:09:38;;;;;;;6.28;3.40;;;14.10;59.90;;;;;;5071950;28;20036;-72
2021/03/30 09:12:18;;;;;;;3.67;2.45;;;14.20;59.90;;;;;;5071832;28;20013;-72
2021/03/30 09:14:44;;;;;;;3.55;2.28;;;14.20;59.80;;;;;;5073585;28;20048;-73
2021/03/30 09:17:12;;;;;;;4.05;2.53;;;14.40;59.90;;;;;;5072604;28;20082;-72
2021/03/30 09:19:49;;;;;;;3.88;2.50;;;14.40;59.70;;;;;;5072772;28;20477;-71
2021/03/30 09:25:25;;;;;;;3.53;2.17;;;14.60;59.80;;;;;;5073850;28;20139;-72
2021/03/30 09:27:51;;;;;;;3.75;2.55;;;14.70;59.70;;;;;;5073556;28;20028;-72
2021/03/30 09:30:19;;;;;;;6.57;3.03;;;14.70;59.70;;;;;;5071664;28;20141;-73
2021/03/30 09:32:46;;;;;;;4.57;3.63;;;14.90;59.60;;;;;;5072870;28;20031;-72
2021/03/30 09:35:16;;;;;;;4.07;2.70;;;15.00;59.30;;;;;;5073091;28;20040;-72
2021/03/30 09:37:45;;;;;;;3.85;2.60;;;15.20;59.20;;;;;;5073405;28;20089;-72
2021/03/30 09:40:16;;;;;;;4.85;3.00;;;15.30;59.20;;;;;;5072854;28;20021;-73
2021/03/30 09:42:43;;;;;;;4.03;2.60;;;15.40;59.10;;;;;;5073315;28;20025;-72
2021/03/30 09:45:11;;;;;;;4.38;2.38;;;15.50;59.00;;;;;;5073279;28;20519;-72
2021/03/30 09:47:38;;;;;;;4.55;2.95;;;15.60;58.90;;;;;;5072770;28;20082;-72
2021/03/30 09:50:05;;;;;;;4.47;3.17;;;15.70;58.80;;;;;;5071466;28;20044;-71
2021/03/30 09:52:32;;;;;;;4.10;2.65;;;15.80;58.70;;;;;;5072663;28;20041;-72
2021/03/30 09:54:58;;;;;;;4.50;2.88;;;15.90;58.60;;;;;;5072595;28;20044;-72
2021/03/30 09:57:27;;;;;;;4.15;2.97;;;16.00;58.50;;;;;;5072616;28;20025;-72
2021/03/30 09:59:53;;;;;;;6.22;3.53;;;16.20;58.50;;;;;;5072611;28;20021;-72
2021/03/30 10:02:22;;;;;;;5.50;3.42;;;16.20;58.30;;;;;;5073092;28;20146;-72
2021/03/30 10:04:55;;;;;;;4.63;3.03;;;16.30;58.20;;;;;;5072680;28;20021;-72
2021/03/30 10:07:22;;;;;;;4.40;3.45;;;16.50;58.00;;;;;;5076320;28;20016;-72
2021/03/30 10:10:07;;;;;;;4.38;3.00;;;16.60;57.70;;;;;;5076454;28;20052;-72
2021/03/30 10:12:54;;;;;;;3.78;2.67;;;16.70;57.50;;;;;;5076946;28;20016;-72
2021/03/30 10:15:37;;;;;;;5.70;3.25;;;16.90;57.60;;;;;;5076162;28;20020;-72
2021/03/30 10:18:05;;;;;;;4.45;2.72;;;16.90;57.30;;;;;;5076821;28;20066;-72
2021/03/30 10:20:31;;;;;;;4.78;2.90;;;17.00;57.30;;;;;;5076033;28;20405;-72
2021/03/30 10:22:56;;;;;;;5.18;3.38;;;17.10;57.20;;;;;;5076008;28;20075;-73
2021/03/30 10:25:29;;;;;;;5.15;3.33;;;17.20;56.90;;;;;;5076327;28;20052;-72
2021/03/30 10:27:58;;;;;;;4.63;2.90;;;17.30;56.80;;;;;;5075711;28;20042;-72
2021/03/30 10:30:39;;;;;;;5.15;3.05;;;17.30;56.40;;;;;;5075786;28;20024;-71
2021/03/30 10:33:14;;;;;;;5.38;3.53;;;17.40;56.50;;;;;;5076569;28;20099;-72
2021/03/30 10:35:40;;;;;;;3.60;2.58;;;17.40;56.40;;;;;;5075941;28;20029;-73
2021/03/30 10:38:05;;;;;;;5.20;2.90;;;17.50;56.30;;;;;;5075931;28;20380;-72
2021/03/30 10:40:39;;;;;;;5.47;3.10;;;17.50;56.10;;;;;;5075755;28;20028;-72
2021/03/30 10:43:25;;;;;;;5.13;2.92;;;17.70;55.90;;;;;;5074476;28;20029;-72
2021/03/30 10:45:52;;;;;;;3.65;2.38;;;17.80;55.70;;;;;;5076254;28;20107;-72
2021/03/30 10:48:19;;;;;;;3.45;2.60;;;17.80;55.60;;;;;;5075609;28;20078;-72
2021/03/30 10:50:45;;;;;;;3.25;2.13;;;17.80;55.50;;;;;;5074440;28;20017;-72
2021/03/30 10:53:11;;;;;;;3.63;2.22;;;17.90;55.30;;;;;;5075720;28;20520;-72
2021/03/30 10:55:38;;;;;;;3.97;2.47;;;18.00;55.00;;;;;;5075637;28;20099;-72
2021/03/30 10:58:08;;;;;;;3.60;2.15;;;18.00;54.90;;;;;;5075524;28;20021;-71
2021/03/30 11:00:35;;;;;;;3.80;2.28;;;18.00;54.80;;;;;;5075595;28;20028;-71
2021/03/30 11:03:00;;;;;;;3.72;2.65;;;18.20;54.70;;;;;;5075518;28;20032;-71
2021/03/30 11:05:27;;;;;;;3.95;2.70;;;18.20;54.40;;;;;;5075368;28;20013;-71
2021/03/30 11:07:53;;;;;;;4.65;2.63;;;18.20;54.40;;;;;;5075634;28;20029;-71
2021/03/30 11:10:20;;;;;;;4.05;2.60;;;18.30;54.20;;;;;;5075355;28;20032;-71
2021/03/30 11:12:46;;;;;;;3.40;2.20;;;18.40;54.00;;;;;;5075719;28;20024;-71
2021/03/30 11:15:12;;;;;;;4.47;2.70;;;18.60;53.70;;;;;;5073919;28;20027;-70
2021/03/30 11:17:38;;;;;;;4.20;2.75;;;18.70;53.60;;;;;;5073382;28;20104;-70
2021/03/30 11:20:09;;;;;;;3.40;2.33;;;18.70;53.40;;;;;;5073709;28;20048;-71
2021/03/30 11:22:34;;;;;;;3.63;2.10;;;18.80;53.30;;;;;;5074340;28;20024;-71
2021/03/30 11:25:03;;;;;;;4.03;2.30;;;18.90;53.40;;;;;;5073534;28;20078;-71
2021/03/30 11:27:31;;;;;;;4.60;2.55;;;18.90;53.20;;;;;;5073634;28;20021;-71
2021/03/30 11:30:14;;;;;;;3.58;2.47;;;19.00;53.40;;;;;;5075473;28;20020;-71
2021/03/30 11:32:47;;;;;;;4.18;2.50;;;19.00;53.30;;;;;;5074915;28;20024;-72
2021/03/30 11:35:28;;;;;;;5.68;3.10;;;19.10;53.20;;;;;;5075411;28;20036;-71
2021/03/30 11:38:09;;;;;;;3.80;2.25;;;19.20;53.30;;;;;;5075450;28;20485;-71
2021/03/30 11:40:35;;;;;;;3.15;2.28;;;19.20;53.30;;;;;;5075206;28;20017;-71
2021/03/30 11:43:01;;;;;;;4.30;2.65;;;19.30;53.30;;;;;;5075211;28;20037;-71
2021/03/30 11:45:26;;;;;;;3.25;2.28;;;19.30;53.10;;;;;;5074669;28;20024;-71
2021/03/30 11:47:52;;;;;;;5.43;2.80;;;19.50;53.00;;;;;;5073320;28;20021;-71
2021/03/30 11:50:17;;;;;;;3.88;2.40;;;19.60;52.80;;;;;;5073943;28;20033;-71
2021/03/30 11:52:43;;;;;;;4.63;3.17;;;19.60;52.70;;;;;;5074461;28;20024;-71
2021/03/30 11:55:10;;;;;;;4.68;2.97;;;19.70;52.70;;;;;;5074449;28;20028;-71
2021/03/30 11:57:36;;;;;;;4.47;2.65;;;19.80;52.50;;;;;;5072961;28;20062;-71
2021/03/30 12:00:02;;;;;;;4.32;2.25;;;19.90;52.40;;;;;;5073092;28;20028;-71
2021/03/30 12:02:28;;;;;;;4.78;2.92;;;20.00;52.80;;;;;;5074039;28;20618;-71
2021/03/30 12:04:54;;;;;;;3.75;2.47;;;20.20;52.20;;;;;;5074219;28;20059;-71
2021/03/30 12:07:20;;;;;;;3.55;2.20;;;20.50;51.60;;;;;;5072955;28;20017;-71
2021/03/30 12:09:46;;;;;;;4.13;2.28;;;20.70;51.10;;;;;;5074066;28;20031;-70
2021/03/30 12:12:11;;;;;;;4.88;3.13;;;21.00;50.80;;;;;;5074696;28;20025;-71
2021/03/30 12:14:37;;;;;;;5.05;3.05;;;21.40;50.30;;;;;;5074458;28;20024;-71
2021/03/30 12:17:02;;;;;;;4.03;2.90;;;21.70;49.90;;;;;;5074568;28;20033;-71
2021/03/30 12:19:28;;;;;;;5.28;3.60;;;22.00;49.10;;;;;;5073901;28;20029;-71
2021/03/30 12:21:54;;;;;;;4.72;2.83;;;22.40;48.50;;;;;;5073719;28;20044;-71
2021/03/30 12:24:21;;;;;;;4.75;3.58;;;22.60;48.20;;;;;;5074051;28;20184;-71
2021/03/30 12:26:46;;;;;;;2.75;1.80;;;22.80;47.50;;;;;;5073317;28;20346;-71
2021/03/30 12:29:12;;;;;;;3.95;2.40;;;22.90;47.50;;;;;;5072714;28;20027;-71
2021/03/30 12:31:38;;;;;;;3.65;2.20;;;23.10;47.40;;;;;;5074174;28;20032;-71
2021/03/30 12:34:03;;;;;;;3.80;2.50;;;23.20;47.30;;;;;;5073606;28;20047;-72
2021/03/30 12:36:29;;;;;;;4.18;2.90;;;23.20;47.30;;;;;;5073507;28;20473;-71
2021/03/30 12:38:55;;;;;;;3.55;2.60;;;23.20;47.30;;;;;;5072219;28;20107;-71
2021/03/30 12:41:22;;;;;;;5.68;3.17;;;23.30;47.10;;;;;;5073953;28;20020;-71
2021/03/30 12:43:48;;;;;;;4.97;2.95;;;23.20;47.30;;;;;;5073459;28;20104;-71
2021/03/30 12:46:13;;;;;;;5.72;3.28;;;23.20;47.50;;;;;;5073926;28;20059;-71
2021/03/30 12:48:39;;;;;;;5.18;3.30;;;23.20;47.30;;;;;;5073981;28;20028;-71
2021/03/30 12:51:05;;;;;;;5.43;3.35;;;23.20;47.20;;;;;;5073342;28;20062;-72
2021/03/30 12:53:32;;;;;;;7.10;3.90;;;23.20;47.30;;;;;;5073139;28;20033;-71
2021/03/30 12:55:57;;;;;;;5.68;4.38;;;23.20;47.50;;;;;;5073264;28;20017;-71
2021/03/30 12:58:23;;;;;;;7.82;4.72;;;23.20;47.50;;;;;;5073621;28;20166;-71
2021/03/30 13:00:48;;;;;;;8.65;5.07;;;23.10;47.30;;;;;;5073212;28;20025;-71
2021/03/30 13:03:14;;;;;;;6.05;4.20;;;23.30;47.20;;;;;;5073607;28;20121;-71
2021/03/30 13:05:39;;;;;;;5.85;3.78;;;23.50;47.00;;;;;;5073096;28;20018;-71